EKAH

Aarhus Airport

Aarhus, Denmark
METAR EKAH 130450Z AUTO 04005KT 9999NDV BKN015/// OVC034/// 02/01 Q1030
Observed Flight Rules
Dec-13 @ 04:50 UTC (20 minutes ago)
Wind Clouds
40° at 5 knots
  • Broken at 1,500' AGL
  • Overcast at 3,400' AGL
Temperatures Readings
Current 2°C / 36°F
Dewpoint 1°C / 34°F
Humidity 93%
Altimeter 30.41" Hg
Pressure 1030 hPa
Elevation 25
METAR EKAH 130450Z AUTO 04005KT 9999NDV BKN015/// OVC034/// 02/01 Q1030
Observed Flight Rules
Dec-13 @ 04:50 UTC
(20 minutes ago)
Wind
40° at 5 knots
Clouds
  • Broken at 1,500' AGL
  • Overcast at 3,400' AGL
Temperature Dewpoint
2°C / 36°F 1°C / 34°F
Humidity Altimeter Pressure
93% 30.41" Hg 1030 hPa